Time;durP1;ratioP1;P1;durP2;ratioP2;P2;SDS_P1;SDS_P2;PMS_P1;PMS_P2;Temp;Humidity;BMP_temperature;BMP_pressure;BME280_temperature;BME280_humidity;BME280_pressure;Samples;Min_cycle;Max_cycle;Signal;HPM_P1;HPM_P2
2024/04/06 00:01:06;;;;;;;6.70;2.85;;;;;;;15.81;62.12;99301.66;4330473;33;33978;-85
2024/04/06 00:03:33;;;;;;;6.28;3.22;;;;;;;16.03;61.66;99296.31;4303873;33;33224;-83
2024/04/06 00:05:59;;;;;;;7.32;3.20;;;;;;;16.02;62.21;99298.06;4291707;33;32619;-85
2024/04/06 00:08:26;;;;;;;8.55;3.30;;;;;;;16.01;62.14;99296.31;4314933;33;35071;-83
2024/04/06 00:10:53;;;;;;;8.57;3.40;;;;;;;16.09;61.68;99295.38;4289855;33;32978;-83
2024/04/06 00:13:19;;;;;;;6.60;3.58;;;;;;;16.03;61.54;99286.72;4300674;33;34324;-82
2024/04/06 00:15:46;;;;;;;8.02;2.70;;;;;;;16.14;61.22;99293.59;4306438;33;33953;-83
2024/04/06 00:18:13;;;;;;;7.10;3.12;;;;;;;15.82;62.30;99286.84;4316624;33;33908;-83
2024/04/06 00:20:39;;;;;;;6.90;3.35;;;;;;;15.98;61.54;99290.22;4325649;33;34862;-83
2024/04/06 00:23:07;;;;;;;7.62;3.42;;;;;;;15.95;61.54;99298.13;4316699;33;33446;-83
2024/04/06 00:25:34;;;;;;;10.50;3.97;;;;;;;15.95;61.77;99301.59;4318019;33;34168;-84
2024/04/06 00:28:00;;;;;;;7.37;3.53;;;;;;;16.00;61.08;99312.88;4318113;33;33273;-84
2024/04/06 00:30:27;;;;;;;6.90;3.90;;;;;;;15.87;61.47;99311.22;4297944;33;33820;-86
2024/04/06 00:32:54;;;;;;;6.90;3.55;;;;;;;15.91;61.21;99307.72;4308593;33;34102;-87
2024/04/06 00:35:20;;;;;;;9.30;4.03;;;;;;;16.01;60.64;99312.00;4316536;33;33627;-87
2024/04/06 00:37:49;;;;;;;7.80;3.75;;;;;;;15.89;60.96;99309.47;4302269;33;35154;-86
2024/04/06 00:40:15;;;;;;;6.25;3.80;;;;;;;15.93;60.66;99308.56;4318277;33;33759;-87
2024/04/06 00:42:42;;;;;;;5.18;2.87;;;;;;;15.95;60.46;99298.97;4327375;33;34103;-85
2024/04/06 00:45:08;;;;;;;12.77;3.42;;;;;;;15.84;60.50;99295.56;4300949;33;34036;-84
2024/04/06 00:47:35;;;;;;;5.60;3.15;;;;;;;15.88;60.18;99289.44;4301436;33;35038;-87
2024/04/06 00:50:05;;;;;;;8.15;2.90;;;;;;;15.85;60.23;99286.84;4317796;33;33602;-85
2024/04/06 00:52:32;;;;;;;5.80;2.80;;;;;;;15.92;59.98;99293.75;4329600;33;33117;-82
2024/04/06 00:54:59;;;;;;;7.70;2.85;;;;;;;15.74;60.83;99293.88;4316224;33;34157;-84
2024/04/06 00:57:27;;;;;;;6.22;2.85;;;;;;;15.70;60.99;99285.19;4299008;33;34710;-84
2024/04/06 00:59:53;;;;;;;6.43;2.95;;;;;;;15.78;60.84;99279.91;4316875;33;34128;-84
2024/04/06 01:02:20;;;;;;;5.95;2.65;;;;;;;15.54;61.38;99276.53;4303464;33;32634;-83
2024/04/06 01:04:46;;;;;;;7.62;3.40;;;;;;;15.46;61.72;99278.31;4316940;33;33914;-83
2024/04/06 01:07:13;;;;;;;10.63;2.95;;;;;;;15.47;61.73;99274.84;4303403;33;33878;-84
2024/04/06 01:09:40;;;;;;;6.32;3.03;;;;;;;15.47;61.97;99268.75;4304203;33;34038;-83
2024/04/06 01:12:06;;;;;;;6.22;3.25;;;;;;;15.40;62.37;99282.72;4302153;33;33194;-85
2024/04/06 01:14:33;;;;;;;8.98;2.80;;;;;;;15.32;62.70;99287.97;4304758;33;33764;-83
2024/04/06 01:17:00;;;;;;;5.70;2.75;;;;;;;15.33;62.74;99281.84;4288888;33;34413;-84
2024/04/06 01:19:26;;;;;;;8.70;3.22;;;;;;;15.43;62.43;99280.94;4302104;33;34234;-86
2024/04/06 01:21:53;;;;;;;5.28;2.65;;;;;;;15.49;61.97;99283.53;4320300;33;33603;-83
2024/04/06 01:24:26;;;;;;;7.53;3.53;;;;;;;15.47;61.78;99290.50;4313967;33;33890;-83
2024/04/06 01:26:53;;;;;;;7.28;3.10;;;;;;;15.55;61.71;99293.09;4303467;33;34156;-83
2024/04/06 01:29:22;;;;;;;10.02;3.92;;;;;;;15.49;62.17;99298.31;4291624;33;34702;-83
2024/04/06 01:31:48;;;;;;;8.43;4.12;;;;;;;15.54;61.95;99293.97;4291124;33;33459;-84
2024/04/06 01:34:15;;;;;;;8.55;4.32;;;;;;;15.51;62.02;99296.59;4302249;33;34603;-84
2024/04/06 01:36:42;;;;;;;8.52;4.22;;;;;;;15.63;61.57;99298.25;4301785;33;33641;-85
2024/04/06 01:39:08;;;;;;;7.43;3.80;;;;;;;15.52;61.48;99306.16;4308379;33;32167;-83
2024/04/06 01:41:38;;;;;;;6.78;3.95;;;;;;;15.48;61.62;99297.47;4329746;33;34144;-83
2024/04/06 01:44:06;;;;;;;8.32;4.18;;;;;;;15.52;61.51;99298.31;4331261;33;33747;-85
2024/04/06 01:46:33;;;;;;;8.65;4.07;;;;;;;15.63;60.98;99293.91;4309249;33;32547;-84
2024/04/06 01:49:00;;;;;;;8.90;3.70;;;;;;;15.47;61.53;99295.72;4305438;33;33910;-83
2024/04/06 01:51:27;;;;;;;7.30;3.92;;;;;;;15.40;61.83;99293.16;4313094;33;33708;-83
2024/04/06 01:53:53;;;;;;;10.73;3.90;;;;;;;15.52;61.47;99301.78;4323978;33;33942;-84
2024/04/06 01:56:20;;;;;;;8.20;4.22;;;;;;;15.46;61.63;99300.97;4288598;33;33608;-83
2024/04/06 01:58:46;;;;;;;6.75;3.70;;;;;;;15.42;61.79;99296.62;4302100;33;34759;-85
2024/04/06 02:01:13;;;;;;;7.10;3.67;;;;;;;15.43;61.76;99309.69;4300899;33;34354;-84
2024/04/06 02:03:40;;;;;;;9.05;3.75;;;;;;;15.28;61.94;99305.41;4301774;33;33697;-84
2024/04/06 02:06:09;;;;;;;7.45;3.55;;;;;;;15.37;61.82;99308.84;4300912;33;34872;-84
2024/04/06 02:08:35;;;;;;;7.28;3.65;;;;;;;15.21;62.08;99298.47;4296850;33;33357;-83
2024/04/06 02:11:03;;;;;;;8.18;3.60;;;;;;;15.29;61.73;99298.44;4330476;33;33177;-84
2024/04/06 02:13:30;;;;;;;6.32;3.12;;;;;;;15.32;61.68;99294.06;4331261;33;34083;-84
2024/04/06 02:15:57;;;;;;;9.27;3.90;;;;;;;15.33;61.96;99292.31;4324798;33;34021;-85
2024/04/06 02:18:23;;;;;;;7.68;3.60;;;;;;;15.32;61.74;99286.22;4302775;33;34119;-86
2024/04/06 02:20:50;;;;;;;9.40;4.10;;;;;;;15.40;61.65;99291.41;4315831;33;33299;-85
2024/04/06 02:23:16;;;;;;;9.50;4.00;;;;;;;15.40;61.85;99290.53;4300667;33;34138;-85
2024/04/06 02:25:43;;;;;;;7.62;3.33;;;;;;;15.30;62.39;99293.22;4315161;33;34292;-85
2024/04/06 02:28:10;;;;;;;7.18;3.20;;;;;;;15.28;62.89;99310.62;4316358;33;33862;-85
2024/04/06 02:30:37;;;;;;;8.75;3.45;;;;;;;15.30;62.99;99308.00;4316144;33;33383;-85
2024/04/06 02:33:06;;;;;;;7.32;3.62;;;;;;;15.31;62.72;99305.41;4301349;33;33319;-85
2024/04/06 02:35:33;;;;;;;5.07;2.90;;;;;;;15.30;62.94;99297.53;4304930;33;34014;-87
2024/04/06 02:37:59;;;;;;;6.60;3.20;;;;;;;15.35;62.80;99297.53;4315525;33;34338;-86
2024/04/06 02:40:26;;;;;;;7.10;3.05;;;;;;;15.46;62.54;99294.00;4297464;33;33026;-86
2024/04/06 02:42:53;;;;;;;9.25;3.30;;;;;;;15.44;62.74;99285.28;4310999;33;34158;-86
2024/04/06 02:45:19;;;;;;;6.45;2.60;;;;;;;15.45;62.63;99278.31;4310772;33;34901;-85
2024/04/06 02:47:46;;;;;;;6.55;3.00;;;;;;;15.42;62.80;99270.50;4309742;33;33762;-85
2024/04/06 02:50:12;;;;;;;7.68;3.10;;;;;;;15.42;62.80;99270.50;4307825;33;33533;-86
2024/04/06 02:52:39;;;;;;;7.18;3.12;;;;;;;15.37;63.01;99278.34;4315854;33;34161;-84
2024/04/06 02:55:06;;;;;;;7.72;3.80;;;;;;;15.41;62.86;99268.75;4305950;33;34274;-85
2024/04/06 02:57:33;;;;;;;7.10;3.10;;;;;;;15.32;63.07;99265.31;4305993;33;33979;-85
2024/04/06 02:59:59;;;;;;;7.32;3.70;;;;;;;15.40;63.04;99265.28;4314720;33;33344;-86
2024/04/06 03:02:26;;;;;;;7.90;3.28;;;;;;;15.31;63.35;99268.81;4312067;33;33578;-85
2024/04/06 03:04:52;;;;;;;6.97;3.50;;;;;;;15.27;63.53;99263.63;4313275;33;34101;-84
2024/04/06 03:07:19;;;;;;;6.28;3.87;;;;;;;15.20;63.84;99265.38;4316598;33;33852;-85
2024/04/06 03:09:46;;;;;;;7.85;3.25;;;;;;;15.26;63.71;99262.72;4316917;33;33276;-85
2024/04/06 03:12:14;;;;;;;7.40;3.08;;;;;;;15.28;63.93;99267.97;4312381;33;34779;-85
2024/04/06 03:14:40;;;;;;;6.07;3.45;;;;;;;15.21;64.04;99271.47;4301031;33;34127;-85
2024/04/06 03:17:07;;;;;;;7.03;3.90;;;;;;;15.31;63.69;99274.03;4301001;33;33983;-85
2024/04/06 03:19:33;;;;;;;8.75;3.83;;;;;;;15.15;64.26;99279.31;4301223;33;33952;-85
2024/04/06 03:22:00;;;;;;;6.57;3.87;;;;;;;15.19;64.16;99275.81;4301284;33;32631;-85
2024/04/06 03:24:27;;;;;;;6.80;3.30;;;;;;;15.28;63.99;99275.81;4308377;33;34881;-85
2024/04/06 03:26:53;;;;;;;6.55;3.67;;;;;;;15.18;64.11;99276.72;4287956;33;33128;-85
2024/04/06 03:29:20;;;;;;;8.18;4.18;;;;;;;15.00;64.80;99275.91;4304944;33;34501;-85
2024/04/06 03:31:47;;;;;;;8.05;3.53;;;;;;;14.95;64.73;99275.03;4315330;33;33961;-84
2024/04/06 03:34:13;;;;;;;8.52;4.00;;;;;;;14.81;65.59;99279.44;4315648;33;33646;-86
2024/04/06 03:36:40;;;;;;;6.47;3.65;;;;;;;14.94;65.21;99269.84;4315538;33;34050;-85
2024/04/06 03:39:08;;;;;;;6.45;3.40;;;;;;;15.06;64.80;99272.41;4312509;33;33510;-85
2024/04/06 03:41:34;;;;;;;9.43;3.53;;;;;;;14.99;64.79;99274.16;4300911;33;34741;-86
2024/04/06 03:44:00;;;;;;;6.78;3.75;;;;;;;15.15;64.35;99274.97;4287818;33;34293;-85
2024/04/06 03:46:29;;;;;;;8.30;3.95;;;;;;;15.17;64.41;99272.38;4308219;33;33137;-85
2024/04/06 03:48:55;;;;;;;8.02;3.95;;;;;;;15.13;64.60;99283.69;4313236;33;32281;-84
2024/04/06 03:51:23;;;;;;;9.27;3.78;;;;;;;14.97;65.29;99281.16;4298880;33;33593;-83
2024/04/06 03:53:51;;;;;;;7.40;3.35;;;;;;;14.96;65.37;99287.22;4296866;33;34865;-85
2024/04/06 03:56:17;;;;;;;6.47;4.00;;;;;;;15.17;64.61;99293.25;4313623;33;33863;-83
2024/04/06 03:58:44;;;;;;;7.35;3.75;;;;;;;15.23;64.23;99296.72;4303180;33;33557;-84
2024/04/06 04:01:10;;;;;;;7.43;3.37;;;;;;;15.24;64.26;99298.44;4305973;33;33773;-86
2024/04/06 04:03:38;;;;;;;7.37;3.75;;;;;;;15.06;64.79;99294.16;4309381;33;34201;-85
2024/04/06 04:06:06;;;;;;;8.02;3.90;;;;;;;15.22;64.46;99297.56;4307263;33;34210;-85
2024/04/06 04:08:33;;;;;;;5.70;3.35;;;;;;;15.16;64.62;99295.00;4302989;33;33358;-84
2024/04/06 04:11:00;;;;;;;8.18;3.62;;;;;;;15.18;64.48;99295.84;4310953;33;34745;-83
2024/04/06 04:13:26;;;;;;;8.63;3.80;;;;;;;15.21;64.15;99300.19;4301026;33;33975;-85
2024/04/06 04:15:54;;;;;;;7.28;3.87;;;;;;;15.18;64.20;99303.69;4300271;33;34095;-85
2024/04/06 04:18:20;;;;;;;8.07;4.12;;;;;;;15.12;64.57;99313.31;4308709;33;33626;-85
2024/04/06 04:20:48;;;;;;;6.95;3.40;;;;;;;15.06;64.66;99314.19;4312629;33;32777;-85
2024/04/06 04:23:15;;;;;;;6.93;3.67;;;;;;;15.12;64.46;99316.78;4312809;33;34165;-86
2024/04/06 04:25:42;;;;;;;6.18;3.67;;;;;;;15.20;64.22;99330.69;4312482;33;34602;-85
2024/04/06 04:28:08;;;;;;;6.62;3.50;;;;;;;15.22;64.18;99333.28;4316453;33;34246;-83
2024/04/06 04:30:35;;;;;;;9.07;4.12;;;;;;;15.04;64.84;99329.87;4310764;33;33900;-84
2024/04/06 04:33:02;;;;;;;9.32;3.22;;;;;;;15.03;65.18;99320.28;4299049;33;34272;-86
2024/04/06 04:35:29;;;;;;;6.35;3.28;;;;;;;15.19;64.94;99312.38;4308301;33;33508;-86
2024/04/06 04:37:55;;;;;;;6.57;3.10;;;;;;;15.15;65.22;99323.72;4302250;33;33266;-84
2024/04/06 04:40:23;;;;;;;5.95;2.78;;;;;;;14.98;66.05;99321.16;4306921;33;33928;-84
2024/04/06 04:42:51;;;;;;;8.07;3.25;;;;;;;15.06;66.09;99322.87;4309000;33;34160;-84
2024/04/06 04:45:17;;;;;;;10.55;3.37;;;;;;;14.94;67.00;99332.50;4304630;33;34880;-86
2024/04/06 04:47:44;;;;;;;6.87;2.70;;;;;;;14.95;66.87;99331.63;4302559;33;34132;-85
2024/04/06 04:50:11;;;;;;;5.47;3.08;;;;;;;15.05;66.47;99328.97;4299906;33;34892;-85
2024/04/06 04:52:38;;;;;;;6.22;2.60;;;;;;;15.19;65.97;99330.66;4302802;33;33904;-84
2024/04/06 04:55:05;;;;;;;7.65;3.80;;;;;;;15.03;66.77;99343.75;4305899;33;33483;-85
2024/04/06 04:57:31;;;;;;;7.68;3.45;;;;;;;15.14;66.36;99335.03;4315010;33;33937;-83
2024/04/06 04:59:58;;;;;;;8.82;4.15;;;;;;;15.15;66.39;99342.00;4308904;33;33907;-84
2024/04/06 05:02:25;;;;;;;11.15;6.10;;;;;;;15.27;65.91;99339.38;4316046;33;34276;-85
2024/04/06 05:04:51;;;;;;;9.25;5.60;;;;;;;15.22;66.12;99348.94;4315495;33;34779;-85
2024/04/06 05:07:19;;;;;;;7.95;4.00;;;;;;;15.29;66.05;99353.28;4303077;33;34135;-85
2024/04/06 05:09:47;;;;;;;11.38;6.78;;;;;;;15.45;65.84;99360.19;4311327;33;34178;-84
2024/04/06 05:12:14;;;;;;;11.55;6.47;;;;;;;15.39;65.66;99359.34;4307856;33;34343;-86
2024/04/06 05:14:41;;;;;;;9.40;5.78;;;;;;;15.33;66.18;99368.94;4302130;33;33001;-86
2024/04/06 05:17:07;;;;;;;12.25;6.95;;;;;;;15.45;66.03;99370.63;4306146;33;33527;-84
2024/04/06 05:19:35;;;;;;;8.75;4.30;;;;;;;15.58;65.64;99376.69;4302173;33;34657;-86
2024/04/06 05:22:01;;;;;;;6.85;3.28;;;;;;;15.53;65.91;99370.59;4312700;33;34154;-85
2024/04/06 05:24:28;;;;;;;7.90;3.65;;;;;;;15.56;65.42;99374.06;4306132;33;34760;-85
2024/04/06 05:26:56;;;;;;;10.70;5.00;;;;;;;15.86;63.44;99367.00;4316698;33;33437;-85
2024/04/06 05:29:22;;;;;;;10.45;4.93;;;;;;;15.34;65.61;99361.97;4306702;33;34540;-84
2024/04/06 05:31:50;;;;;;;10.10;5.50;;;;;;;15.44;65.65;99358.44;4288790;33;33987;-85
2024/04/06 05:34:16;;;;;;;9.10;5.07;;;;;;;15.63;65.28;99363.59;4302060;33;34031;-85
2024/04/06 05:36:43;;;;;;;9.63;5.25;;;;;;;15.87;64.80;99357.41;4301881;33;33331;-84
2024/04/06 05:39:10;;;;;;;15.95;8.73;;;;;;;15.95;64.48;99361.72;4301431;33;33354;-84
2024/04/06 05:41:37;;;;;;;12.23;6.78;;;;;;;15.93;64.61;99363.47;4302046;33;35159;-85
2024/04/06 05:44:03;;;;;;;19.37;8.07;;;;;;;15.72;64.50;99372.31;4301901;33;33820;-85
2024/04/06 05:46:32;;;;;;;15.15;8.38;;;;;;;15.57;65.59;99373.22;4312427;33;34112;-85
2024/04/06 05:49:00;;;;;;;14.65;8.75;;;;;;;15.86;64.98;99376.59;4316683;33;33970;-85
2024/04/06 05:51:28;;;;;;;16.65;9.27;;;;;;;15.99;64.97;99373.91;4312560;33;34806;-85
2024/04/06 05:53:54;;;;;;;10.25;6.30;;;;;;;15.88;65.15;99374.84;4308116;33;33792;-83
2024/04/06 05:56:21;;;;;;;13.35;7.07;;;;;;;15.58;65.38;99372.34;4292238;33;34170;-84
2024/04/06 05:58:47;;;;;;;12.68;6.32;;;;;;;15.84;64.89;99368.78;4311326;33;34058;-85
2024/04/06 06:01:14;;;;;;;16.15;10.48;;;;;;;15.51;66.32;99364.53;4312625;33;34182;-84
2024/04/06 06:03:42;;;;;;;8.48;4.60;;;;;;;15.75;64.51;99366.19;4316485;33;33823;-84
2024/04/06 06:06:08;;;;;;;7.90;4.70;;;;;;;15.64;64.84;99374.03;4298965;33;32245;-85
2024/04/06 06:08:35;;;;;;;9.48;4.70;;;;;;;15.74;65.14;99367.06;4289982;33;33789;-85
2024/04/06 06:11:03;;;;;;;9.57;4.30;;;;;;;16.03;64.32;99374.75;4303935;33;35011;-85
2024/04/06 06:13:29;;;;;;;8.05;4.32;;;;;;;16.18;63.96;99382.50;4315019;33;34590;-84
2024/04/06 06:15:57;;;;;;;11.63;4.72;;;;;;;16.26;64.07;99382.47;4293213;33;33467;-84
2024/04/06 06:18:23;;;;;;;8.20;4.28;;;;;;;16.43;64.00;99383.19;4310679;33;34529;-85
2024/04/06 06:20:50;;;;;;;9.65;5.30;;;;;;;16.62;63.33;99381.28;4315376;33;34124;-85
2024/04/06 06:23:16;;;;;;;8.85;4.97;;;;;;;16.24;63.84;99378.97;4310043;33;34664;-84
2024/04/06 06:25:43;;;;;;;9.38;4.90;;;;;;;15.99;63.60;99386.97;4318670;33;34197;-84
2024/04/06 06:28:10;;;;;;;11.45;5.18;;;;;;;16.39;62.14;99388.47;4303227;33;33671;-84
2024/04/06 06:30:40;;;;;;;9.55;5.55;;;;;;;16.61;63.55;99389.16;4316088;33;33962;-85
2024/04/06 06:33:07;;;;;;;11.75;5.25;;;;;;;16.69;64.31;99389.97;4292744;33;33787;-84
2024/04/06 06:35:35;;;;;;;11.45;5.03;;;;;;;16.55;64.61;99387.47;4301781;33;33192;-84
2024/04/06 06:38:01;;;;;;;11.05;6.47;;;;;;;16.95;63.00;99377.53;4305634;33;33968;-85
2024/04/06 06:40:28;;;;;;;8.23;5.43;;;;;;;17.10;63.93;99383.53;4313627;33;34248;-85
2024/04/06 06:42:54;;;;;;;11.85;7.50;;;;;;;17.29;63.94;99384.19;4316889;33;34237;-84
2024/04/06 06:45:21;;;;;;;9.13;4.97;;;;;;;17.36;64.36;99386.72;4311998;33;34106;-83
2024/04/06 06:47:48;;;;;;;10.50;4.03;;;;;;;17.26;63.16;99380.72;4319663;33;33862;-83
2024/04/06 06:50:14;;;;;;;8.10;3.25;;;;;;;17.56;59.65;99388.25;4297166;33;33837;-83
2024/04/06 06:52:41;;;;;;;7.07;2.87;;;;;;;17.59;58.02;99388.22;4319628;33;34121;-83
2024/04/06 06:55:09;;;;;;;9.70;3.37;;;;;;;17.75;56.56;99389.78;4317146;33;33514;-82
2024/04/06 06:57:35;;;;;;;6.30;2.83;;;;;;;17.69;58.57;99393.34;4311289;33;33905;-84
2024/04/06 07:00:02;;;;;;;9.32;3.40;;;;;;;17.76;56.67;99404.63;4313760;33;34254;-82
2024/04/06 07:02:29;;;;;;;5.22;2.65;;;;;;;18.01;55.68;99409.56;4301886;33;34091;-86
2024/04/06 07:04:56;;;;;;;8.52;3.00;;;;;;;18.06;56.26;99410.38;4304363;33;33590;-85
2024/04/06 07:07:22;;;;;;;8.05;3.35;;;;;;;18.17;55.85;99413.72;4302569;33;34396;-85
2024/04/06 07:09:49;;;;;;;8.32;3.10;;;;;;;18.46;54.96;99414.16;4310436;33;35528;-84
2024/04/06 07:12:16;;;;;;;7.68;2.85;;;;;;;18.06;55.99;99426.09;4323205;33;34880;-86
2024/04/06 07:14:42;;;;;;;6.82;3.22;;;;;;;18.15;55.77;99423.38;4322095;33;33172;-85
2024/04/06 07:17:09;;;;;;;7.05;2.95;;;;;;;18.29;54.90;99424.03;4316620;33;34065;-85
2024/04/06 07:19:35;;;;;;;7.43;2.60;;;;;;;18.15;55.64;99423.38;4330253;33;33685;-84
2024/04/06 07:22:02;;;;;;;8.90;2.92;;;;;;;18.54;54.76;99428.94;4316842;33;33095;-84
2024/04/06 07:24:29;;;;;;;8.55;2.80;;;;;;;18.41;55.54;99431.75;4329895;33;34166;-84
2024/04/06 07:26:55;;;;;;;9.13;2.97;;;;;;;18.69;53.66;99428.69;4328039;33;33643;-83
2024/04/06 07:29:22;;;;;;;8.43;2.70;;;;;;;18.86;53.41;99431.06;4315123;33;34158;-85
2024/04/06 07:31:48;;;;;;;4.85;2.40;;;;;;;18.68;53.92;99427.81;4315465;33;34045;-83
2024/04/06 07:34:19;;;;;;;7.55;2.80;;;;;;;19.33;52.13;99427.59;4315830;33;34321;-85
2024/04/06 07:36:52;;;;;;;6.93;2.55;;;;;;;19.38;51.22;99424.88;4301858;33;33408;-83
2024/04/06 07:39:18;;;;;;;7.78;2.50;;;;;;;19.37;51.15;99429.28;4324427;33;34192;-83
2024/04/06 07:41:44;;;;;;;5.87;2.28;;;;;;;19.11;52.33;99428.87;4316574;33;33835;-83
2024/04/06 07:44:11;;;;;;;8.27;2.60;;;;;;;19.41;51.57;99441.47;4329960;33;33155;-83
2024/04/06 07:46:38;;;;;;;6.78;2.10;;;;;;;19.61;51.29;99437.59;4316740;33;33352;-83
2024/04/06 07:49:04;;;;;;;7.20;2.75;;;;;;;19.55;52.19;99432.47;4307783;33;33512;-83
2024/04/06 07:51:31;;;;;;;7.40;2.30;;;;;;;19.62;52.30;99440.25;4301651;33;33686;-84
2024/04/06 07:53:57;;;;;;;5.78;2.22;;;;;;;19.49;51.84;99443.94;4309658;33;34257;-85
2024/04/06 07:56:24;;;;;;;7.22;2.22;;;;;;;19.90;50.31;99443.16;4300805;33;34004;-84
2024/04/06 07:58:51;;;;;;;6.25;2.08;;;;;;;19.95;50.75;99437.78;4305238;33;34704;-83
2024/04/06 08:01:17;;;;;;;8.32;2.58;;;;;;;20.09;50.49;99450.69;4316221;33;34751;-84
2024/04/06 08:03:44;;;;;;;9.05;2.30;;;;;;;20.15;52.35;99455.78;4300052;33;34452;-84
2024/04/06 08:06:11;;;;;;;7.43;2.35;;;;;;;20.02;51.00;99449.06;4302675;33;34562;-84
2024/04/06 08:08:38;;;;;;;7.20;2.03;;;;;;;20.12;50.86;99450.63;4302309;33;34259;-84
2024/04/06 08:11:05;;;;;;;6.60;2.10;;;;;;;20.28;48.54;99441.47;4312133;33;34602;-85
2024/04/06 08:13:32;;;;;;;5.43;1.92;;;;;;;20.41;48.74;99450.81;4304025;33;32850;-85
2024/04/06 08:15:58;;;;;;;6.78;2.20;;;;;;;20.25;48.57;99452.06;4321878;33;34118;-85
2024/04/06 08:18:26;;;;;;;6.95;2.00;;;;;;;20.37;48.86;99445.66;4331840;33;34179;-84
2024/04/06 08:20:53;;;;;;;7.20;2.20;;;;;;;20.54;47.06;99437.41;4331824;33;34898;-85
2024/04/06 08:23:19;;;;;;;6.18;2.15;;;;;;;20.78;47.36;99444.72;4318301;33;33342;-84
2024/04/06 08:25:48;;;;;;;4.55;1.55;;;;;;;21.12;45.69;99439.47;4331772;33;33958;-84
2024/04/06 08:28:14;;;;;;;7.50;1.77;;;;;;;20.81;47.92;99439.38;4318273;33;35059;-84
2024/04/06 08:30:41;;;;;;;6.82;1.77;;;;;;;21.14;47.49;99442.09;4318126;33;33425;-84
2024/04/06 08:33:08;;;;;;;8.02;2.22;;;;;;;21.04;47.67;99437.94;4325064;33;33929;-85
2024/04/06 08:35:37;;;;;;;5.80;1.73;;;;;;;21.25;47.48;99439.13;4303726;33;33763;-84
2024/04/06 08:38:04;;;;;;;4.87;1.55;;;;;;;21.43;46.32;99436.06;4316821;33;34703;-86
2024/04/06 08:40:31;;;;;;;4.80;1.90;;;;;;;21.32;46.02;99432.81;4303850;33;33580;-85
2024/04/06 08:43:02;;;;;;;5.18;1.80;;;;;;;21.53;46.48;99431.41;4303761;33;34022;-84
2024/04/06 08:45:29;;;;;;;5.40;1.58;;;;;;;21.92;42.49;99424.09;4303364;33;34662;-85
2024/04/06 08:47:57;;;;;;;3.42;1.37;;;;;;;21.57;43.90;99428.63;4303899;33;34128;-84
2024/04/06 08:50:25;;;;;;;5.30;1.73;;;;;;;21.68;44.41;99417.78;4316933;33;34672;-85
2024/04/06 08:52:52;;;;;;;3.92;1.58;;;;;;;22.07;43.94;99423.66;4290593;33;34123;-85
2024/04/06 08:55:19;;;;;;;5.40;1.92;;;;;;;22.04;42.89;99417.59;4313564;33;34505;-84
2024/04/06 08:57:46;;;;;;;5.72;1.37;;;;;;;22.18;43.23;99415.44;4313910;33;35075;-85
2024/04/06 09:00:13;;;;;;;4.87;2.05;;;;;;;21.96;43.78;99414.34;4303330;33;34692;-86
2024/04/06 09:02:41;;;;;;;4.53;1.40;;;;;;;22.22;42.12;99413.59;4308048;33;33337;-85
2024/04/06 09:05:08;;;;;;;5.18;1.98;;;;;;;22.71;41.70;99415.53;4317259;33;34850;-85
2024/04/06 09:07:34;;;;;;;4.80;1.30;;;;;;;22.87;42.24;99412.38;4316546;33;33945;-85
2024/04/06 09:10:01;;;;;;;5.57;1.20;;;;;;;22.88;40.73;99414.09;4303435;33;32553;-85
2024/04/06 09:12:28;;;;;;;5.78;1.65;;;;;;;23.16;39.40;99414.94;4316284;33;33501;-85
2024/04/06 09:14:54;;;;;;;5.40;1.55;;;;;;;23.18;40.65;99421.00;4317031;33;33655;-85
2024/04/06 09:17:24;;;;;;;4.75;1.42;;;;;;;23.24;39.66;99407.59;4316806;33;33792;-84
2024/04/06 09:19:50;;;;;;;5.53;1.42;;;;;;;23.40;38.54;99415.84;4302591;33;34190;-85
2024/04/06 09:22:17;;;;;;;4.57;1.20;;;;;;;23.36;40.28;99408.06;4320505;33;34266;-83
2024/04/06 09:24:46;;;;;;;2.62;1.10;;;;;;;23.09;40.00;99409.91;4302161;33;34068;-83
2024/04/06 09:27:14;;;;;;;3.83;1.25;;;;;;;23.14;39.77;99408.81;4314227;33;35669;-84
2024/04/06 09:29:47;;;;;;;5.70;1.60;;;;;;;23.02;38.88;99404.81;4307458;33;33910;-83
2024/04/06 09:32:16;;;;;;;4.25;1.30;;;;;;;23.57;39.29;99401.16;4319346;33;34292;-83
2024/04/06 09:34:47;;;;;;;5.10;1.37;;;;;;;23.84;37.56;99399.28;4318135;33;33621;-85
2024/04/06 09:37:19;;;;;;;5.37;1.40;;;;;;;23.50;38.37;99408.44;4325574;33;34788;-85
2024/04/06 09:39:46;;;;;;;3.28;1.00;;;;;;;23.59;38.47;99405.44;4317098;33;34560;-84
2024/04/06 09:42:14;;;;;;;4.30;1.42;;;;;;;23.30;38.75;99407.37;4301003;33;33554;-85
2024/04/06 09:44:41;;;;;;;2.92;0.98;;;;;;;23.08;38.38;99403.75;4317438;33;33697;-84
2024/04/06 09:47:09;;;;;;;5.45;1.45;;;;;;;23.74;37.96;99404.91;4311572;33;34129;-83
2024/04/06 09:49:36;;;;;;;3.45;1.23;;;;;;;23.53;36.78;99406.56;4312902;33;34741;-83
2024/04/06 09:52:03;;;;;;;5.25;1.05;;;;;;;23.93;37.27;99409.53;4317438;33;33172;-85
2024/04/06 09:54:29;;;;;;;4.55;1.48;;;;;;;24.01;37.78;99404.78;4324280;33;34838;-83
2024/04/06 09:56:56;;;;;;;6.10;1.45;;;;;;;24.30;36.03;99405.47;4302780;33;34360;-82
2024/04/06 09:59:23;;;;;;;4.40;1.20;;;;;;;24.31;35.81;99400.09;4328223;33;34126;-83
2024/04/06 10:01:53;;;;;;;5.50;1.42;;;;;;;24.13;35.71;99396.41;4317847;33;34504;-84
2024/04/06 10:04:29;;;;;;;3.72;1.27;;;;;;;24.06;36.40;99407.28;4331115;33;34100;-85
2024/04/06 10:06:56;;;;;;;4.80;1.30;;;;;;;24.07;37.31;99417.81;4328859;33;35115;-84
2024/04/06 10:09:31;;;;;;;7.55;1.65;;;;;;;24.22;37.51;99411.06;4306806;33;34665;-85
2024/04/06 10:12:02;;;;;;;3.30;1.40;;;;;;;23.99;37.19;99411.94;4308591;33;33023;-84
2024/04/06 10:14:29;;;;;;;5.70;2.00;;;;;;;24.05;38.73;99406.41;4331130;33;33511;-84
2024/04/06 10:17:08;;;;;;;4.45;1.70;;;;;;;24.14;37.14;99414.00;4318197;33;34306;-85
2024/04/06 10:19:35;;;;;;;5.95;1.58;;;;;;;24.24;38.04;99414.50;4316280;33;33199;-84
2024/04/06 10:22:03;;;;;;;5.55;1.85;;;;;;;24.68;36.45;99419.84;4315676;33;33181;-83
2024/04/06 10:24:30;;;;;;;4.30;1.75;;;;;;;24.44;39.38;99427.88;4315774;33;34743;-83
2024/04/06 10:26:57;;;;;;;5.43;2.25;;;;;;;24.15;38.33;99423.69;4317973;33;34188;-85
2024/04/06 10:29:24;;;;;;;6.22;2.53;;;;;;;23.77;39.13;99428.63;4316428;33;34118;-83
2024/04/06 10:31:50;;;;;;;6.87;2.90;;;;;;;23.79;38.65;99424.16;4302880;33;33467;-84
2024/04/06 10:34:17;;;;;;;7.28;3.05;;;;;;;23.20;39.17;99427.13;4302929;33;34722;-83
2024/04/06 10:36:44;;;;;;;7.68;2.92;;;;;;;23.88;38.63;99419.44;4316162;33;33836;-84
2024/04/06 10:39:10;;;;;;;7.97;2.87;;;;;;;24.08;38.04;99424.81;4302427;33;33947;-83
2024/04/06 10:41:39;;;;;;;8.20;3.33;;;;;;;24.12;38.52;99414.97;4291570;33;33500;-84
2024/04/06 10:44:05;;;;;;;6.93;3.37;;;;;;;23.85;38.65;99407.16;4301826;33;33583;-85
2024/04/06 10:46:33;;;;;;;6.50;3.30;;;;;;;24.30;38.24;99411.63;4301417;33;34757;-84
2024/04/06 10:49:00;;;;;;;6.50;3.92;;;;;;;24.74;38.81;99409.88;4308291;33;33628;-86
2024/04/06 10:51:26;;;;;;;8.63;3.22;;;;;;;24.96;37.28;99404.53;4314108;33;32966;-85
2024/04/06 10:53:54;;;;;;;9.00;3.85;;;;;;;24.75;38.48;99411.59;4313826;33;34073;-83
2024/04/06 10:56:21;;;;;;;6.53;3.33;;;;;;;25.12;37.63;99399.47;4309829;33;32393;-84
2024/04/06 10:58:48;;;;;;;7.40;3.12;;;;;;;25.19;37.96;99394.72;4330144;33;33908;-86
2024/04/06 11:01:14;;;;;;;5.25;2.50;;;;;;;25.02;37.41;99392.78;4305020;33;33364;-85
2024/04/06 11:03:42;;;;;;;6.62;2.83;;;;;;;24.79;36.64;99392.91;4321400;33;33683;-84
2024/04/06 11:06:08;;;;;;;5.43;2.33;;;;;;;25.23;36.15;99391.91;4320282;33;33872;-84
2024/04/06 11:08:37;;;;;;;6.40;2.28;;;;;;;24.75;37.96;99398.31;4302811;33;34072;-84
2024/04/06 11:11:04;;;;;;;6.20;2.12;;;;;;;25.09;37.21;99394.25;4314705;33;32902;-84
2024/04/06 11:13:31;;;;;;;5.45;2.17;;;;;;;25.18;36.48;99396.53;4330409;33;34742;-84
2024/04/06 11:15:57;;;;;;;4.35;1.73;;;;;;;25.09;36.18;99396.91;4330615;33;34135;-84
2024/04/06 11:18:24;;;;;;;6.30;2.08;;;;;;;25.10;36.24;99393.34;4325912;33;33747;-83
2024/04/06 11:20:51;;;;;;;7.07;2.00;;;;;;;24.99;36.80;99393.75;4314665;33;34241;-83
2024/04/06 11:23:21;;;;;;;6.45;1.90;;;;;;;24.92;36.25;99386.13;4313876;33;34682;-83
2024/04/06 11:25:47;;;;;;;8.07;2.12;;;;;;;25.40;36.45;99383.19;4328226;33;33936;-86
2024/04/06 11:28:14;;;;;;;7.55;1.90;;;;;;;25.46;35.43;99390.03;4294223;33;33762;-84
2024/04/06 11:30:41;;;;;;;4.70;1.87;;;;;;;25.52;36.35;99386.22;4315579;33;33122;-85